sensor_id;sensor_type;location;lat;lon;timestamp;temperature;humidity
17599;DHT22;8918;52.092;5.232;2023-06-14T00:00:07;21.10;91.60
17599;DHT22;8918;52.092;5.232;2023-06-14T00:02:33;21.00;91.60
17599;DHT22;8918;52.092;5.232;2023-06-14T00:04:58;21.00;92.00
17599;DHT22;8918;52.092;5.232;2023-06-14T00:07:37;21.00;91.60
17599;DHT22;8918;52.092;5.232;2023-06-14T00:10:14;20.90;91.60
17599;DHT22;8918;52.092;5.232;2023-06-14T00:12:40;20.90;91.60
17599;DHT22;8918;52.092;5.232;2023-06-14T00:15:06;20.90;91.70
17599;DHT22;8918;52.092;5.232;2023-06-14T00:17:32;20.90;91.70
17599;DHT22;8918;52.092;5.232;2023-06-14T00:19:59;20.80;91.70
17599;DHT22;8918;52.092;5.232;2023-06-14T00:22:25;20.80;91.70
17599;DHT22;8918;52.092;5.232;2023-06-14T00:24:52;20.80;91.80
17599;DHT22;8918;52.092;5.232;2023-06-14T00:27:17;20.70;91.90
17599;DHT22;8918;52.092;5.232;2023-06-14T00:29:43;20.70;91.90
17599;DHT22;8918;52.092;5.232;2023-06-14T00:32:09;20.70;92.00
17599;DHT22;8918;52.092;5.232;2023-06-14T00:34:34;20.60;92.10
17599;DHT22;8918;52.092;5.232;2023-06-14T00:37:00;20.60;92.10
17599;DHT22;8918;52.092;5.232;2023-06-14T00:39:26;20.50;92.30
17599;DHT22;8918;52.092;5.232;2023-06-14T00:41:52;20.50;92.70
17599;DHT22;8918;52.092;5.232;2023-06-14T00:44:17;20.50;92.40
17599;DHT22;8918;52.092;5.232;2023-06-14T00:46:45;20.40;92.40
17599;DHT22;8918;52.092;5.232;2023-06-14T00:49:12;20.40;92.50
17599;DHT22;8918;52.092;5.232;2023-06-14T00:51:38;20.30;92.60
17599;DHT22;8918;52.092;5.232;2023-06-14T00:54:04;20.30;92.60
17599;DHT22;8918;52.092;5.232;2023-06-14T00:56:30;20.20;92.70
17599;DHT22;8918;52.092;5.232;2023-06-14T00:58:56;20.20;92.80
17599;DHT22;8918;52.092;5.232;2023-06-14T01:01:23;20.20;92.80
17599;DHT22;8918;52.092;5.232;2023-06-14T01:03:49;20.20;92.90
17599;DHT22;8918;52.092;5.232;2023-06-14T01:12:37;20.10;93.00
17599;DHT22;8918;52.092;5.232;2023-06-14T01:15:05;20.10;93.10
17599;DHT22;8918;52.092;5.232;2023-06-14T01:17:32;20.00;93.10
17599;DHT22;8918;52.092;5.232;2023-06-14T01:20:00;20.00;93.10
17599;DHT22;8918;52.092;5.232;2023-06-14T01:22:26;20.00;93.20
17599;DHT22;8918;52.092;5.232;2023-06-14T01:24:53;19.90;93.40
17599;DHT22;8918;52.092;5.232;2023-06-14T01:27:23;19.90;93.40
17599;DHT22;8918;52.092;5.232;2023-06-14T01:29:51;19.80;93.40
17599;DHT22;8918;52.092;5.232;2023-06-14T01:32:17;19.80;93.50
17599;DHT22;8918;52.092;5.232;2023-06-14T01:34:44;19.80;93.50
17599;DHT22;8918;52.092;5.232;2023-06-14T01:37:11;19.70;93.60
17599;DHT22;8918;52.092;5.232;2023-06-14T01:39:37;19.70;93.70
17599;DHT22;8918;52.092;5.232;2023-06-14T01:42:04;19.60;93.60
17599;DHT22;8918;52.092;5.232;2023-06-14T01:44:31;19.60;93.70
17599;DHT22;8918;52.092;5.232;2023-06-14T01:46:57;19.60;93.70
17599;DHT22;8918;52.092;5.232;2023-06-14T01:49:23;19.60;93.70
17599;DHT22;8918;52.092;5.232;2023-06-14T01:51:49;19.50;93.80
17599;DHT22;8918;52.092;5.232;2023-06-14T01:54:14;19.50;94.00
17599;DHT22;8918;52.092;5.232;2023-06-14T01:56:40;19.40;93.90
17599;DHT22;8918;52.092;5.232;2023-06-14T01:59:06;19.30;94.00
17599;DHT22;8918;52.092;5.232;2023-06-14T02:01:31;19.30;94.20
17599;DHT22;8918;52.092;5.232;2023-06-14T02:03:59;19.30;94.30
17599;DHT22;8918;52.092;5.232;2023-06-14T02:06:26;19.30;94.40
17599;DHT22;8918;52.092;5.232;2023-06-14T02:08:53;19.20;94.40
17599;DHT22;8918;52.092;5.232;2023-06-14T02:11:19;19.20;94.50
17599;DHT22;8918;52.092;5.232;2023-06-14T02:13:44;19.20;94.60
17599;DHT22;8918;52.092;5.232;2023-06-14T02:16:10;19.20;94.60
17599;DHT22;8918;52.092;5.232;2023-06-14T02:18:36;19.10;94.60
17599;DHT22;8918;52.092;5.232;2023-06-14T02:21:02;19.10;94.70
17599;DHT22;8918;52.092;5.232;2023-06-14T02:23:27;19.00;94.80
17599;DHT22;8918;52.092;5.232;2023-06-14T02:25:53;19.00;94.90
17599;DHT22;8918;52.092;5.232;2023-06-14T02:28:18;18.90;94.90
17599;DHT22;8918;52.092;5.232;2023-06-14T02:30:44;18.80;94.90
17599;DHT22;8918;52.092;5.232;2023-06-14T02:33:09;18.80;95.10
17599;DHT22;8918;52.092;5.232;2023-06-14T02:35:38;18.80;95.10
17599;DHT22;8918;52.092;5.232;2023-06-14T02:38:04;18.70;95.10
17599;DHT22;8918;52.092;5.232;2023-06-14T02:40:29;18.80;95.20
17599;DHT22;8918;52.092;5.232;2023-06-14T02:42:55;18.70;95.20
17599;DHT22;8918;52.092;5.232;2023-06-14T02:45:20;18.70;95.30
17599;DHT22;8918;52.092;5.232;2023-06-14T02:47:46;18.80;96.20
17599;DHT22;8918;52.092;5.232;2023-06-14T02:50:12;18.80;95.90
17599;DHT22;8918;52.092;5.232;2023-06-14T02:52:37;18.80;96.20
17599;DHT22;8918;52.092;5.232;2023-06-14T02:55:03;18.80;96.00
17599;DHT22;8918;52.092;5.232;2023-06-14T02:57:30;18.70;96.30
17599;DHT22;8918;52.092;5.232;2023-06-14T02:59:55;18.80;96.00
17599;DHT22;8918;52.092;5.232;2023-06-14T03:02:21;18.80;96.00
17599;DHT22;8918;52.092;5.232;2023-06-14T03:04:46;18.80;96.00
17599;DHT22;8918;52.092;5.232;2023-06-14T03:07:12;18.80;96.10
17599;DHT22;8918;52.092;5.232;2023-06-14T03:09:38;18.70;95.90
17599;DHT22;8918;52.092;5.232;2023-06-14T03:12:05;18.70;95.90
17599;DHT22;8918;52.092;5.232;2023-06-14T03:14:35;18.60;96.10
17599;DHT22;8918;52.092;5.232;2023-06-14T03:17:01;18.60;96.20
17599;DHT22;8918;52.092;5.232;2023-06-14T03:19:27;18.50;96.10
17599;DHT22;8918;52.092;5.232;2023-06-14T03:21:53;18.50;96.10
17599;DHT22;8918;52.092;5.232;2023-06-14T03:24:22;18.40;96.20
17599;DHT22;8918;52.092;5.232;2023-06-14T03:26:48;18.30;96.30
17599;DHT22;8918;52.092;5.232;2023-06-14T03:29:13;18.20;96.40
17599;DHT22;8918;52.092;5.232;2023-06-14T03:31:59;18.10;96.60
17599;DHT22;8918;52.092;5.232;2023-06-14T03:34:25;18.10;96.70
17599;DHT22;8918;52.092;5.232;2023-06-14T03:36:51;18.10;96.70
17599;DHT22;8918;52.092;5.232;2023-06-14T03:39:17;18.00;96.70
17599;DHT22;8918;52.092;5.232;2023-06-14T03:41:42;18.00;96.70
17599;DHT22;8918;52.092;5.232;2023-06-14T03:44:08;18.00;96.70
17599;DHT22;8918;52.092;5.232;2023-06-14T03:46:33;18.00;96.70
17599;DHT22;8918;52.092;5.232;2023-06-14T03:48:59;18.00;96.80
17599;DHT22;8918;52.092;5.232;2023-06-14T03:51:25;18.00;97.00
17599;DHT22;8918;52.092;5.232;2023-06-14T03:53:51;18.00;96.90
17599;DHT22;8918;52.092;5.232;2023-06-14T03:56:17;18.00;96.80
17599;DHT22;8918;52.092;5.232;2023-06-14T03:58:42;18.00;96.80
17599;DHT22;8918;52.092;5.232;2023-06-14T04:01:08;17.90;97.00
17599;DHT22;8918;52.092;5.232;2023-06-14T04:03:33;17.90;97.00
17599;DHT22;8918;52.092;5.232;2023-06-14T04:05:59;17.90;96.90
17599;DHT22;8918;52.092;5.232;2023-06-14T04:08:25;17.80;97.00
17599;DHT22;8918;52.092;5.232;2023-06-14T04:10:51;17.80;97.10
17599;DHT22;8918;52.092;5.232;2023-06-14T04:13:16;17.90;97.10
17599;DHT22;8918;52.092;5.232;2023-06-14T04:15:42;17.90;97.20
17599;DHT22;8918;52.092;5.232;2023-06-14T04:18:09;17.90;97.10
17599;DHT22;8918;52.092;5.232;2023-06-14T04:20:35;17.90;97.40
17599;DHT22;8918;52.092;5.232;2023-06-14T04:23:17;17.90;97.30
17599;DHT22;8918;52.092;5.232;2023-06-14T04:25:47;17.90;97.30
17599;DHT22;8918;52.092;5.232;2023-06-14T04:28:13;17.90;97.30
17599;DHT22;8918;52.092;5.232;2023-06-14T04:30:41;17.90;97.50
17599;DHT22;8918;52.092;5.232;2023-06-14T04:33:07;17.90;97.30
17599;DHT22;8918;52.092;5.232;2023-06-14T04:35:33;17.90;97.50
17599;DHT22;8918;52.092;5.232;2023-06-14T04:38:01;17.90;97.50
17599;DHT22;8918;52.092;5.232;2023-06-14T04:40:30;17.90;97.50
17599;DHT22;8918;52.092;5.232;2023-06-14T04:42:55;17.90;97.50
17599;DHT22;8918;52.092;5.232;2023-06-14T04:45:21;17.90;97.50
17599;DHT22;8918;52.092;5.232;2023-06-14T04:47:48;17.90;97.60
17599;DHT22;8918;52.092;5.232;2023-06-14T04:50:13;17.90;97.80
17599;DHT22;8918;52.092;5.232;2023-06-14T04:52:40;17.90;97.70
17599;DHT22;8918;52.092;5.232;2023-06-14T04:55:06;17.90;97.70
17599;DHT22;8918;52.092;5.232;2023-06-14T04:57:32;18.00;97.80
17599;DHT22;8918;52.092;5.232;2023-06-14T04:59:57;18.00;97.70
17599;DHT22;8918;52.092;5.232;2023-06-14T05:02:24;18.00;97.70
17599;DHT22;8918;52.092;5.232;2023-06-14T05:04:50;18.00;97.70
17599;DHT22;8918;52.092;5.232;2023-06-14T05:07:16;18.10;97.60
17599;DHT22;8918;52.092;5.232;2023-06-14T05:09:42;18.10;97.70
17599;DHT22;8918;52.092;5.232;2023-06-14T05:12:07;18.10;97.70
17599;DHT22;8918;52.092;5.232;2023-06-14T05:14:34;18.10;97.70
17599;DHT22;8918;52.092;5.232;2023-06-14T05:17:00;18.10;97.70
17599;DHT22;8918;52.092;5.232;2023-06-14T05:19:25;18.10;97.70
17599;DHT22;8918;52.092;5.232;2023-06-14T05:21:52;18.10;97.90
17599;DHT22;8918;52.092;5.232;2023-06-14T05:24:18;18.20;97.80
17599;DHT22;8918;52.092;5.232;2023-06-14T05:26:44;18.20;97.80
17599;DHT22;8918;52.092;5.232;2023-06-14T05:29:09;18.20;97.90
17599;DHT22;8918;52.092;5.232;2023-06-14T05:31:35;18.20;97.70
17599;DHT22;8918;52.092;5.232;2023-06-14T05:34:01;18.20;97.70
17599;DHT22;8918;52.092;5.232;2023-06-14T05:36:26;18.30;97.70
17599;DHT22;8918;52.092;5.232;2023-06-14T05:38:53;18.30;98.10
17599;DHT22;8918;52.092;5.232;2023-06-14T05:41:28;18.40;97.80
17599;DHT22;8918;52.092;5.232;2023-06-14T05:43:55;18.50;97.90
17599;DHT22;8918;52.092;5.232;2023-06-14T05:46:21;18.50;97.70
17599;DHT22;8918;52.092;5.232;2023-06-14T05:48:50;18.50;97.70
17599;DHT22;8918;52.092;5.232;2023-06-14T05:51:15;18.60;97.70
17599;DHT22;8918;52.092;5.232;2023-06-14T05:53:47;18.60;97.60
17599;DHT22;8918;52.092;5.232;2023-06-14T05:56:14;18.60;97.60
17599;DHT22;8918;52.092;5.232;2023-06-14T05:58:40;18.70;97.70
17599;DHT22;8918;52.092;5.232;2023-06-14T06:01:06;18.70;97.60
17599;DHT22;8918;52.092;5.232;2023-06-14T06:03:32;18.80;97.70
17599;DHT22;8918;52.092;5.232;2023-06-14T06:05:58;18.80;97.60
17599;DHT22;8918;52.092;5.232;2023-06-14T06:08:24;18.80;97.50
17599;DHT22;8918;52.092;5.232;2023-06-14T06:10:49;18.90;97.40
17599;DHT22;8918;52.092;5.232;2023-06-14T06:13:15;19.00;97.60
17599;DHT22;8918;52.092;5.232;2023-06-14T06:15:41;19.00;97.40
17599;DHT22;8918;52.092;5.232;2023-06-14T06:18:06;19.10;97.50
17599;DHT22;8918;52.092;5.232;2023-06-14T06:20:32;19.10;97.30
17599;DHT22;8918;52.092;5.232;2023-06-14T06:22:58;19.20;97.50
17599;DHT22;8918;52.092;5.232;2023-06-14T06:25:24;19.30;97.10
17599;DHT22;8918;52.092;5.232;2023-06-14T06:27:51;19.40;97.00
17599;DHT22;8918;52.092;5.232;2023-06-14T06:30:17;19.40;96.80
17599;DHT22;8918;52.092;5.232;2023-06-14T06:32:43;19.50;96.90
17599;DHT22;8918;52.092;5.232;2023-06-14T06:35:09;19.50;96.70
17599;DHT22;8918;52.092;5.232;2023-06-14T06:37:36;19.60;96.70
17599;DHT22;8918;52.092;5.232;2023-06-14T06:40:02;19.70;96.60
17599;DHT22;8918;52.092;5.232;2023-06-14T06:42:31;19.70;96.50
17599;DHT22;8918;52.092;5.232;2023-06-14T06:44:57;19.80;96.30
17599;DHT22;8918;52.092;5.232;2023-06-14T06:47:22;19.80;96.50
17599;DHT22;8918;52.092;5.232;2023-06-14T06:49:48;20.00;96.10
17599;DHT22;8918;52.092;5.232;2023-06-14T06:52:14;20.00;95.90
17599;DHT22;8918;52.092;5.232;2023-06-14T06:54:39;20.10;96.00
17599;DHT22;8918;52.092;5.232;2023-06-14T06:57:05;20.20;95.90
17599;DHT22;8918;52.092;5.232;2023-06-14T06:59:32;20.20;95.80
17599;DHT22;8918;52.092;5.232;2023-06-14T07:01:58;20.30;95.70
17599;DHT22;8918;52.092;5.232;2023-06-14T07:04:23;20.40;95.80
17599;DHT22;8918;52.092;5.232;2023-06-14T07:06:49;20.50;95.60
17599;DHT22;8918;52.092;5.232;2023-06-14T07:09:15;20.50;95.70
17599;DHT22;8918;52.092;5.232;2023-06-14T07:11:44;20.60;95.50
17599;DHT22;8918;52.092;5.232;2023-06-14T07:14:10;20.60;95.40
17599;DHT22;8918;52.092;5.232;2023-06-14T07:16:36;20.70;95.10
17599;DHT22;8918;52.092;5.232;2023-06-14T07:19:03;20.70;95.00
17599;DHT22;8918;52.092;5.232;2023-06-14T07:21:29;20.80;95.00
17599;DHT22;8918;52.092;5.232;2023-06-14T07:23:55;20.90;94.80
17599;DHT22;8918;52.092;5.232;2023-06-14T07:26:21;21.00;94.60
17599;DHT22;8918;52.092;5.232;2023-06-14T07:28:47;21.00;94.80
17599;DHT22;8918;52.092;5.232;2023-06-14T07:31:15;21.10;94.50
17599;DHT22;8918;52.092;5.232;2023-06-14T07:33:41;21.20;94.10
17599;DHT22;8918;52.092;5.232;2023-06-14T07:36:07;21.30;94.20
17599;DHT22;8918;52.092;5.232;2023-06-14T07:38:33;21.40;93.90
17599;DHT22;8918;52.092;5.232;2023-06-14T07:40:59;21.50;93.60
17599;DHT22;8918;52.092;5.232;2023-06-14T07:43:24;21.50;93.10
17599;DHT22;8918;52.092;5.232;2023-06-14T07:45:50;21.60;93.20
17599;DHT22;8918;52.092;5.232;2023-06-14T07:48:16;21.70;93.20
17599;DHT22;8918;52.092;5.232;2023-06-14T07:50:42;21.70;92.90
17599;DHT22;8918;52.092;5.232;2023-06-14T07:53:07;21.80;93.00
17599;DHT22;8918;52.092;5.232;2023-06-14T07:55:33;21.90;92.70
17599;DHT22;8918;52.092;5.232;2023-06-14T07:58:08;22.00;92.80
17599;DHT22;8918;52.092;5.232;2023-06-14T08:00:34;22.00;92.60
17599;DHT22;8918;52.092;5.232;2023-06-14T08:02:59;22.20;92.30
17599;DHT22;8918;52.092;5.232;2023-06-14T08:05:25;22.20;91.90
17599;DHT22;8918;52.092;5.232;2023-06-14T08:07:52;22.30;92.00
17599;DHT22;8918;52.092;5.232;2023-06-14T08:10:17;22.40;91.90
17599;DHT22;8918;52.092;5.232;2023-06-14T08:12:43;22.50;92.10
17599;DHT22;8918;52.092;5.232;2023-06-14T08:15:09;22.60;92.10
17599;DHT22;8918;52.092;5.232;2023-06-14T08:17:35;22.70;91.90
17599;DHT22;8918;52.092;5.232;2023-06-14T08:20:00;22.80;91.40
17599;DHT22;8918;52.092;5.232;2023-06-14T08:22:26;22.90;90.80
17599;DHT22;8918;52.092;5.232;2023-06-14T08:24:53;22.90;91.00
17599;DHT22;8918;52.092;5.232;2023-06-14T08:27:20;23.10;90.90
17599;DHT22;8918;52.092;5.232;2023-06-14T08:29:45;23.10;90.50
17599;DHT22;8918;52.092;5.232;2023-06-14T08:32:12;23.10;90.70
17599;DHT22;8918;52.092;5.232;2023-06-14T08:34:37;23.20;90.00
17599;DHT22;8918;52.092;5.232;2023-06-14T08:37:03;23.30;89.60
17599;DHT22;8918;52.092;5.232;2023-06-14T08:39:29;23.40;88.80
17599;DHT22;8918;52.092;5.232;2023-06-14T08:41:57;23.40;88.50
17599;DHT22;8918;52.092;5.232;2023-06-14T08:44:22;23.50;88.80
17599;DHT22;8918;52.092;5.232;2023-06-14T08:46:49;23.60;89.60
17599;DHT22;8918;52.092;5.232;2023-06-14T08:49:16;23.70;89.70
17599;DHT22;8918;52.092;5.232;2023-06-14T08:51:43;23.80;89.80
17599;DHT22;8918;52.092;5.232;2023-06-14T08:54:11;23.90;89.20
17599;DHT22;8918;52.092;5.232;2023-06-14T08:56:38;24.00;87.50
17599;DHT22;8918;52.092;5.232;2023-06-14T08:59:06;24.10;85.90
17599;DHT22;8918;52.092;5.232;2023-06-14T09:01:35;24.20;84.70
17599;DHT22;8918;52.092;5.232;2023-06-14T09:04:02;24.20;84.90
17599;DHT22;8918;52.092;5.232;2023-06-14T09:06:28;24.20;85.00
17599;DHT22;8918;52.092;5.232;2023-06-14T09:08:55;24.30;85.30
17599;DHT22;8918;52.092;5.232;2023-06-14T09:11:22;24.40;86.20
17599;DHT22;8918;52.092;5.232;2023-06-14T09:13:49;24.50;83.90
17599;DHT22;8918;52.092;5.232;2023-06-14T09:16:15;24.60;84.20
17599;DHT22;8918;52.092;5.232;2023-06-14T09:18:46;24.60;83.30
17599;DHT22;8918;52.092;5.232;2023-06-14T09:21:16;24.70;82.90
17599;DHT22;8918;52.092;5.232;2023-06-14T09:23:46;24.70;83.40
17599;DHT22;8918;52.092;5.232;2023-06-14T09:26:17;24.80;84.00
17599;DHT22;8918;52.092;5.232;2023-06-14T09:28:47;24.90;84.70
17599;DHT22;8918;52.092;5.232;2023-06-14T09:31:15;25.00;82.80
17599;DHT22;8918;52.092;5.232;2023-06-14T09:33:45;25.10;81.20
17599;DHT22;8918;52.092;5.232;2023-06-14T09:36:20;25.10;81.60
17599;DHT22;8918;52.092;5.232;2023-06-14T09:38:57;25.20;82.20
17599;DHT22;8918;52.092;5.232;2023-06-14T09:44:08;25.40;80.40
17599;DHT22;8918;52.092;5.232;2023-06-14T09:46:34;25.50;80.60
17599;DHT22;8918;52.092;5.232;2023-06-14T09:49:01;25.50;78.10
17599;DHT22;8918;52.092;5.232;2023-06-14T09:51:28;25.50;78.70
17599;DHT22;8918;52.092;5.232;2023-06-14T09:53:59;25.50;79.20
17599;DHT22;8918;52.092;5.232;2023-06-14T09:56:29;25.70;79.50
17599;DHT22;8918;52.092;5.232;2023-06-14T09:58:57;25.70;78.70
17599;DHT22;8918;52.092;5.232;2023-06-14T10:01:27;25.80;79.10
17599;DHT22;8918;52.092;5.232;2023-06-14T10:04:04;25.90;79.50
17599;DHT22;8918;52.092;5.232;2023-06-14T10:06:31;26.00;79.10
17599;DHT22;8918;52.092;5.232;2023-06-14T10:08:58;26.10;78.40
17599;DHT22;8918;52.092;5.232;2023-06-14T10:11:26;26.20;78.10
17599;DHT22;8918;52.092;5.232;2023-06-14T10:13:55;26.20;77.90
17599;DHT22;8918;52.092;5.232;2023-06-14T10:16:32;26.20;77.10
17599;DHT22;8918;52.092;5.232;2023-06-14T10:19:13;26.20;75.30
17599;DHT22;8918;52.092;5.232;2023-06-14T10:24:33;26.20;77.90
17599;DHT22;8918;52.092;5.232;2023-06-14T10:26:59;26.30;77.80
17599;DHT22;8918;52.092;5.232;2023-06-14T10:29:27;26.40;77.30
17599;DHT22;8918;52.092;5.232;2023-06-14T10:31:58;26.40;77.40
17599;DHT22;8918;52.092;5.232;2023-06-14T10:34:28;26.50;77.80
17599;DHT22;8918;52.092;5.232;2023-06-14T10:39:31;26.90;77.60
17599;DHT22;8918;52.092;5.232;2023-06-14T10:41:58;26.90;76.90
17599;DHT22;8918;52.092;5.232;2023-06-14T10:46:57;27.30;74.90
17599;DHT22;8918;52.092;5.232;2023-06-14T10:49:43;27.40;74.90
17599;DHT22;8918;52.092;5.232;2023-06-14T10:52:14;27.50;74.70
17599;DHT22;8918;52.092;5.232;2023-06-14T10:57:24;27.40;74.40
17599;DHT22;8918;52.092;5.232;2023-06-14T10:59:50;27.50;74.60
17599;DHT22;8918;52.092;5.232;2023-06-14T11:04:49;27.60;76.20
17599;DHT22;8918;52.092;5.232;2023-06-14T11:10:36;27.80;75.60
17599;DHT22;8918;52.092;5.232;2023-06-14T11:13:09;27.70;76.10
17599;DHT22;8918;52.092;5.232;2023-06-14T11:15:36;27.70;76.30
17599;DHT22;8918;52.092;5.232;2023-06-14T11:18:06;27.80;76.00
17599;DHT22;8918;52.092;5.232;2023-06-14T11:20:33;27.70;74.70
17599;DHT22;8918;52.092;5.232;2023-06-14T11:22:59;27.70;75.20
17599;DHT22;8918;52.092;5.232;2023-06-14T11:25:26;27.80;74.70
17599;DHT22;8918;52.092;5.232;2023-06-14T11:27:54;27.90;74.70
17599;DHT22;8918;52.092;5.232;2023-06-14T11:30:20;28.00;75.60
17599;DHT22;8918;52.092;5.232;2023-06-14T11:32:49;28.10;75.40
17599;DHT22;8918;52.092;5.232;2023-06-14T11:35:16;28.20;75.60
17599;DHT22;8918;52.092;5.232;2023-06-14T11:37:42;28.20;74.30
17599;DHT22;8918;52.092;5.232;2023-06-14T11:40:10;28.20;75.40
17599;DHT22;8918;52.092;5.232;2023-06-14T11:42:38;28.10;75.30
17599;DHT22;8918;52.092;5.232;2023-06-14T11:45:07;28.10;75.20
17599;DHT22;8918;52.092;5.232;2023-06-14T11:47:33;28.10;75.30
17599;DHT22;8918;52.092;5.232;2023-06-14T11:50:03;28.20;75.30
17599;DHT22;8918;52.092;5.232;2023-06-14T11:52:30;28.10;75.10
17599;DHT22;8918;52.092;5.232;2023-06-14T11:54:56;28.10;75.60
17599;DHT22;8918;52.092;5.232;2023-06-14T11:57:23;28.10;75.00
17599;DHT22;8918;52.092;5.232;2023-06-14T11:59:49;28.10;74.70
17599;DHT22;8918;52.092;5.232;2023-06-14T12:02:15;28.10;75.00
17599;DHT22;8918;52.092;5.232;2023-06-14T12:04:42;28.20;74.60
17599;DHT22;8918;52.092;5.232;2023-06-14T12:07:15;28.20;74.80
17599;DHT22;8918;52.092;5.232;2023-06-14T12:10:03;28.20;74.10
17599;DHT22;8918;52.092;5.232;2023-06-14T12:12:35;28.30;73.90
17599;DHT22;8918;52.092;5.232;2023-06-14T12:15:03;28.30;74.20
17599;DHT22;8918;52.092;5.232;2023-06-14T12:17:35;28.30;73.60
17599;DHT22;8918;52.092;5.232;2023-06-14T12:20:19;28.30;74.20
17599;DHT22;8918;52.092;5.232;2023-06-14T12:22:57;28.20;75.30
17599;DHT22;8918;52.092;5.232;2023-06-14T12:25:33;28.20;74.10
17599;DHT22;8918;52.092;5.232;2023-06-14T12:28:08;28.10;73.40
17599;DHT22;8918;52.092;5.232;2023-06-14T12:30:37;28.10;74.60
17599;DHT22;8918;52.092;5.232;2023-06-14T12:33:03;28.20;74.40
17599;DHT22;8918;52.092;5.232;2023-06-14T12:35:29;28.30;73.90
17599;DHT22;8918;52.092;5.232;2023-06-14T12:37:55;28.30;74.00
17599;DHT22;8918;52.092;5.232;2023-06-14T12:40:22;28.40;73.70
17599;DHT22;8918;52.092;5.232;2023-06-14T12:42:47;28.40;73.90
17599;DHT22;8918;52.092;5.232;2023-06-14T12:45:13;28.50;74.60
17599;DHT22;8918;52.092;5.232;2023-06-14T12:47:39;28.60;74.20
17599;DHT22;8918;52.092;5.232;2023-06-14T12:50:05;28.50;74.50
17599;DHT22;8918;52.092;5.232;2023-06-14T12:52:31;28.40;74.80
17599;DHT22;8918;52.092;5.232;2023-06-14T12:55:01;28.40;74.50
17599;DHT22;8918;52.092;5.232;2023-06-14T12:57:27;28.30;74.40
17599;DHT22;8918;52.092;5.232;2023-06-14T12:59:52;28.30;74.80
17599;DHT22;8918;52.092;5.232;2023-06-14T13:02:19;28.30;75.10
17599;DHT22;8918;52.092;5.232;2023-06-14T13:04:47;28.30;75.60
17599;DHT22;8918;52.092;5.232;2023-06-14T13:07:13;28.30;75.30
17599;DHT22;8918;52.092;5.232;2023-06-14T13:09:40;28.50;77.00
17599;DHT22;8918;52.092;5.232;2023-06-14T13:12:07;28.60;75.30
17599;DHT22;8918;52.092;5.232;2023-06-14T13:14:32;28.50;74.50
17599;DHT22;8918;52.092;5.232;2023-06-14T13:16:58;28.40;73.80
17599;DHT22;8918;52.092;5.232;2023-06-14T13:19:23;28.40;73.70
17599;DHT22;8918;52.092;5.232;2023-06-14T13:21:49;28.30;73.40
17599;DHT22;8918;52.092;5.232;2023-06-14T13:24:15;28.30;73.20
17599;DHT22;8918;52.092;5.232;2023-06-14T13:26:40;28.40;73.60
17599;DHT22;8918;52.092;5.232;2023-06-14T13:29:06;28.40;71.90
17599;DHT22;8918;52.092;5.232;2023-06-14T13:31:32;28.40;72.00
17599;DHT22;8918;52.092;5.232;2023-06-14T13:33:58;28.50;72.50
17599;DHT22;8918;52.092;5.232;2023-06-14T13:36:23;28.50;72.50
17599;DHT22;8918;52.092;5.232;2023-06-14T13:38:49;28.70;71.50
17599;DHT22;8918;52.092;5.232;2023-06-14T13:41:16;28.80;70.70
17599;DHT22;8918;52.092;5.232;2023-06-14T13:43:42;28.80;69.70
17599;DHT22;8918;52.092;5.232;2023-06-14T13:46:07;28.70;70.50
17599;DHT22;8918;52.092;5.232;2023-06-14T13:48:33;28.70;69.50
17599;DHT22;8918;52.092;5.232;2023-06-14T13:51:00;28.70;70.50
17599;DHT22;8918;52.092;5.232;2023-06-14T13:53:26;28.70;72.90
17599;DHT22;8918;52.092;5.232;2023-06-14T13:55:52;28.60;73.20
17599;DHT22;8918;52.092;5.232;2023-06-14T13:58:17;28.60;73.70
17599;DHT22;8918;52.092;5.232;2023-06-14T14:00:43;28.60;74.40
17599;DHT22;8918;52.092;5.232;2023-06-14T14:03:09;28.70;73.50
17599;DHT22;8918;52.092;5.232;2023-06-14T14:05:35;28.80;73.00
17599;DHT22;8918;52.092;5.232;2023-06-14T14:08:00;28.90;72.70
17599;DHT22;8918;52.092;5.232;2023-06-14T14:10:27;28.90;72.90
17599;DHT22;8918;52.092;5.232;2023-06-14T14:12:52;29.00;73.40
17599;DHT22;8918;52.092;5.232;2023-06-14T14:15:20;29.20;72.50
17599;DHT22;8918;52.092;5.232;2023-06-14T14:17:45;29.30;72.50
17599;DHT22;8918;52.092;5.232;2023-06-14T14:20:12;29.50;73.40
17599;DHT22;8918;52.092;5.232;2023-06-14T14:22:43;29.60;72.70
17599;DHT22;8918;52.092;5.232;2023-06-14T14:25:09;29.60;73.20
17599;DHT22;8918;52.092;5.232;2023-06-14T14:27:36;29.70;73.00
17599;DHT22;8918;52.092;5.232;2023-06-14T14:30:03;29.90;72.80
17599;DHT22;8918;52.092;5.232;2023-06-14T14:32:29;29.80;72.30
17599;DHT22;8918;52.092;5.232;2023-06-14T14:34:54;29.70;72.00
17599;DHT22;8918;52.092;5.232;2023-06-14T14:37:20;29.80;72.30
17599;DHT22;8918;52.092;5.232;2023-06-14T14:39:45;29.90;72.20
17599;DHT22;8918;52.092;5.232;2023-06-14T14:42:11;29.90;72.00
17599;DHT22;8918;52.092;5.232;2023-06-14T14:44:38;29.80;71.40
17599;DHT22;8918;52.092;5.232;2023-06-14T14:47:04;29.70;71.00
17599;DHT22;8918;52.092;5.232;2023-06-14T14:49:33;29.80;71.90
17599;DHT22;8918;52.092;5.232;2023-06-14T14:52:01;29.80;72.50
17599;DHT22;8918;52.092;5.232;2023-06-14T14:54:27;30.00;71.10
17599;DHT22;8918;52.092;5.232;2023-06-14T14:56:54;30.10;71.20
17599;DHT22;8918;52.092;5.232;2023-06-14T14:59:20;30.20;71.30
17599;DHT22;8918;52.092;5.232;2023-06-14T15:01:47;30.00;71.00
17599;DHT22;8918;52.092;5.232;2023-06-14T15:04:13;29.90;71.40
17599;DHT22;8918;52.092;5.232;2023-06-14T15:06:38;29.80;70.90
17599;DHT22;8918;52.092;5.232;2023-06-14T15:09:05;29.80;70.40
17599;DHT22;8918;52.092;5.232;2023-06-14T15:11:31;30.00;70.20
17599;DHT22;8918;52.092;5.232;2023-06-14T15:13:56;30.00;70.00
17599;DHT22;8918;52.092;5.232;2023-06-14T15:16:22;30.20;69.90
17599;DHT22;8918;52.092;5.232;2023-06-14T15:18:48;30.20;69.70
17599;DHT22;8918;52.092;5.232;2023-06-14T15:21:14;30.20;69.10
17599;DHT22;8918;52.092;5.232;2023-06-14T15:23:39;30.20;68.80
17599;DHT22;8918;52.092;5.232;2023-06-14T15:26:05;30.20;68.40
17599;DHT22;8918;52.092;5.232;2023-06-14T15:28:31;30.20;68.40
17599;DHT22;8918;52.092;5.232;2023-06-14T15:30:58;30.20;68.80
17599;DHT22;8918;52.092;5.232;2023-06-14T15:33:24;30.10;68.80
17599;DHT22;8918;52.092;5.232;2023-06-14T15:35:50;30.30;69.60
17599;DHT22;8918;52.092;5.232;2023-06-14T15:38:15;30.40;69.30
17599;DHT22;8918;52.092;5.232;2023-06-14T15:40:41;30.70;68.30
17599;DHT22;8918;52.092;5.232;2023-06-14T15:43:06;30.70;67.10
17599;DHT22;8918;52.092;5.232;2023-06-14T15:45:32;30.90;67.10
17599;DHT22;8918;52.092;5.232;2023-06-14T15:47:58;31.00;68.00
17599;DHT22;8918;52.092;5.232;2023-06-14T15:50:25;31.00;67.20
17599;DHT22;8918;52.092;5.232;2023-06-14T15:52:51;30.90;66.70
17599;DHT22;8918;52.092;5.232;2023-06-14T15:55:16;30.70;68.60
17599;DHT22;8918;52.092;5.232;2023-06-14T15:57:42;30.70;67.30
17599;DHT22;8918;52.092;5.232;2023-06-14T16:00:08;30.90;67.50
17599;DHT22;8918;52.092;5.232;2023-06-14T16:02:33;30.80;68.10
17599;DHT22;8918;52.092;5.232;2023-06-14T16:04:59;31.00;68.60
17599;DHT22;8918;52.092;5.232;2023-06-14T16:07:25;31.20;68.10